Weather observations for the past three days for
Canefield Airport
Imperial (Metric)
Date Time (ast) Wind (mph) Vis. (mi.) Weather Sky Cond. Temperature (ºF) Relative Humidity Wind Chill (°F) Heat Index (°F) Pressure Precipitation (in)
Air Dwpt 6 hour altimeter (in) sea level (mb) 1 hr 3 hr 6 hr
Max. Min.
04 16:00 SE 5 0.00 A Few Clouds FEW024 86 69.8 59% 91 0 0.0
04 15:00 SE 5 0.00 A Few Clouds FEW021 84.2 73.4 70% 91 0 0.0
04 14:00 S 7 0.00 Mostly Cloudy FEW022 BKN034 86 69.8 59% 91 0 0.0
04 13:00 SE 6 0.00 Partly Cloudy FEW024 SCT034 86 71.6 62% 92 0 0.0
04 12:00 S 6 G 18 0.00 Partly Cloudy SCT023 87.8 71.6 59% 94 0 0.0
04 11:00 S 6 G 17 0.00 Partly Cloudy SCT023 87.8 71.6 59% 94 0 0.0
04 10:00 SE 12 G 28 0.00 Partly Cloudy SCT023 86 69.8 59% 91 0 0.0
04 09:00 E 6 0.00 A Few Clouds FEW021 86 71.6 62% 92 0 0.0
04 08:00 SE 8 0.00 Mostly Cloudy BKN019 80.6 71.6 74% 85 0 0.0
03 16:00 E 7 0.00 Partly Cloudy SCT017 86 75.2 70% 95 0 0.0
03 15:00 SE 9 0.00 Partly Cloudy SCT019 89.6 75.2 63% 100 0 0.0
03 14:00 SE 9 0.00 Partly Cloudy SCT021 86 71.6 62% 92 0 0.0
03 13:00 SE 7 0.00 Partly Cloudy SCT022 87.8 75.2 66% 98 0 0.0
03 12:00 SE 7 0.00 Mostly Cloudy BKN022 86 71.6 62% 92 0 0.0
03 11:00 E 6 0.00 Mostly Cloudy BKN023 86 69.8 59% 91 0 0.0
03 09:00 N 3 0.00 A Few Clouds FEW024 82.4 71.6 70% 87 0 0.0
03 08:00 N 2 0.00 A Few Clouds FEW022 80.6 73.4 79% 85 0 0.0
02 15:00 SE 6 0.00 Mostly Cloudy BKN018 84.2 75.2 74% 92 0 0.0
02 14:00 E 6 0.00 Mostly Cloudy BKN018 82.4 75.2 79% 89 0 0.0
02 13:00 E 5 0.00 Mostly Cloudy BKN018 86 75.2 70% 95 0 0.0
02 12:00 S 9 0.00 Mostly Cloudy BKN018 84.2 73.4 70% 91 0 0.0
02 11:00 S 7 0.00 Mostly Cloudy BKN018 86 77 75% 97 0 0.0
02 10:00 E 8 0.00 Mostly Cloudy BKN018 84.2 75.2 74% 92 0 0.0
02 09:00 E 8 0.00 Partly Cloudy SCT018 84.2 71.6 66% 90 0 0.0
Date Time (ast) Wind (mph) Vis. (mi.) Weather Sky Cond. Air Dwpt Max. Min. Relative Humidity Wind Chill (°F) Heat Index (°F) altimeter (in) sea level (mb) 1 hr 3 hr 6 hr
6 hour
Temperature (ºF) Pressure Precipitation (in)